createdAt,value
2023-03-29T00:02:42.900Z,1.65
2023-03-29T00:07:45.992Z,1.80
2023-03-29T00:12:49.058Z,2.05
2023-03-29T00:17:51.687Z,1.98
2023-03-29T00:22:54.189Z,1.73
2023-03-29T00:27:56.541Z,1.98
2023-03-29T00:32:58.980Z,1.75
2023-03-29T00:38:01.470Z,2.25
2023-03-29T00:43:03.791Z,1.95
2023-03-29T00:48:11.607Z,1.95
2023-03-29T00:53:18.104Z,2.55
2023-03-29T00:58:33.134Z,1.77
2023-03-29T01:03:46.789Z,2.45
2023-03-29T01:08:57.481Z,2.33
2023-03-29T01:14:04.717Z,2.10
2023-03-29T01:19:10.961Z,1.88
2023-03-29T01:24:22.616Z,1.92
2023-03-29T01:29:33.029Z,2.20
2023-03-29T01:34:46.540Z,2.03
2023-03-29T01:39:48.972Z,2.10
2023-03-29T01:45:02.946Z,2.08
2023-03-29T01:50:14.954Z,2.20
2023-03-29T01:55:22.822Z,2.13
2023-03-29T02:00:28.256Z,2.70
2023-03-29T02:05:32.037Z,1.98
2023-03-29T02:10:37.059Z,2.78
2023-03-29T02:15:40.149Z,2.40
2023-03-29T02:20:50.116Z,2.10
2023-03-29T02:25:57.241Z,2.50
2023-03-29T02:31:10.416Z,2.70
2023-03-29T02:36:27.815Z,2.60
2023-03-29T02:41:30.871Z,2.60
2023-03-29T02:46:35.028Z,2.65
2023-03-29T02:51:38.910Z,3.10
2023-03-29T02:57:00.215Z,2.90
2023-03-29T03:02:03.673Z,2.95
2023-03-29T03:07:06.391Z,2.70
2023-03-29T03:12:09.454Z,2.90
2023-03-29T03:17:11.759Z,2.85
2023-03-29T03:22:15.524Z,2.90
2023-03-29T03:27:18.565Z,3.42
2023-03-29T03:32:21.478Z,4.68
2023-03-29T03:42:45.368Z,3.30
2023-03-29T03:47:48.369Z,3.60
2023-03-29T03:53:13.205Z,3.80
2023-03-29T03:58:36.848Z,4.25
2023-03-29T04:03:39.891Z,4.10
2023-03-29T04:08:45.803Z,5.53
2023-03-29T04:13:55.738Z,9.00
2023-03-29T04:24:20.933Z,12.50
2023-03-29T04:29:45.153Z,10.63
2023-03-29T04:34:56.980Z,9.38
2023-03-29T04:40:04.431Z,4.90
2023-03-29T04:45:19.014Z,14.73
2023-03-29T04:50:40.576Z,14.65
2023-03-29T04:55:43.801Z,13.60
2023-03-29T05:00:50.378Z,6.00
2023-03-29T05:06:08.087Z,4.35
2023-03-29T05:11:12.457Z,4.68
2023-03-29T05:16:16.177Z,8.02
2023-03-29T05:21:19.454Z,4.68
2023-03-29T05:26:23.295Z,3.78
2023-03-29T05:31:29.480Z,3.22
2023-03-29T05:36:32.648Z,5.03
2023-03-29T05:41:35.110Z,6.28
2023-03-29T05:47:02.423Z,3.75
2023-03-29T05:52:04.775Z,3.20
2023-03-29T05:57:08.684Z,3.88
2023-03-29T06:02:15.187Z,4.65
2023-03-29T06:07:23.760Z,3.60
2023-03-29T06:12:55.817Z,2.80
2023-03-29T06:18:00.612Z,3.60
2023-03-29T06:23:03.114Z,3.45
2023-03-29T06:28:06.290Z,3.60
2023-03-29T06:49:46.068Z,6.95
2023-03-29T06:55:12.343Z,73.72
2023-03-29T07:00:19.811Z,116.18
2023-03-29T07:05:52.451Z,55.92
2023-03-29T07:10:56.456Z,8.77
2023-03-29T07:16:19.689Z,11.48
2023-03-29T07:21:34.860Z,15.82
2023-03-29T07:26:40.526Z,3.10
2023-03-29T07:31:49.269Z,2.50
2023-03-29T07:37:11.921Z,2.45
2023-03-29T07:42:17.199Z,2.30
2023-03-29T07:47:20.265Z,2.20
2023-03-29T07:52:22.962Z,1.90
2023-03-29T07:57:27.318Z,2.42
2023-03-29T08:02:32.348Z,1.90
2023-03-29T08:07:38.110Z,1.90
2023-03-29T08:13:09.947Z,3.22
2023-03-29T08:18:38.972Z,2.20
2023-03-29T08:23:42.446Z,1.85
2023-03-29T08:28:52.536Z,2.10
2023-03-29T08:33:57.645Z,2.22
2023-03-29T08:39:22.939Z,2.17
2023-03-29T08:45:00.327Z,6.18
2023-03-29T08:50:04.387Z,3.42
2023-03-29T08:55:41.842Z,2.08
2023-03-29T09:01:06.399Z,2.20
2023-03-29T09:06:22.377Z,1.63
2023-03-29T09:11:46.321Z,5.25
2023-03-29T09:17:04.167Z,7.70
2023-03-29T09:22:25.089Z,24.23
2023-03-29T09:27:33.719Z,24.92
2023-03-29T09:32:54.714Z,6.00
2023-03-29T09:38:06.231Z,4.70
2023-03-29T09:43:16.331Z,28.90
2023-03-29T09:48:21.178Z,8.77
2023-03-29T09:53:48.045Z,5.95
2023-03-29T09:59:07.691Z,8.07
2023-03-29T10:04:11.652Z,6.38
2023-03-29T10:09:27.732Z,16.08
2023-03-29T10:14:50.354Z,5.32
2023-03-29T10:20:04.500Z,3.58
2023-03-29T10:25:14.593Z,2.65
2023-03-29T10:30:25.752Z,2.13
2023-03-29T10:35:38.550Z,2.10
2023-03-29T10:40:47.544Z,2.38
2023-03-29T10:45:52.950Z,3.00
2023-03-29T10:50:59.709Z,2.20
2023-03-29T10:56:08.869Z,2.35
2023-03-29T11:01:21.399Z,2.33
2023-03-29T11:06:37.277Z,2.78
2023-03-29T11:12:24.583Z,3.25
2023-03-29T11:17:58.870Z,2.78
2023-03-29T11:23:26.870Z,2.50
2023-03-29T11:28:53.391Z,2.40
2023-03-29T11:34:20.539Z,2.85
2023-03-29T11:39:52.159Z,3.95
2023-03-29T11:44:59.046Z,2.17
2023-03-29T11:50:24.165Z,2.00
2023-03-29T11:55:33.863Z,3.17
2023-03-29T12:01:02.732Z,3.10
2023-03-29T12:06:23.371Z,3.00
2023-03-29T12:11:36.803Z,2.75
2023-03-29T12:16:54.178Z,3.13
2023-03-29T12:21:59.382Z,44.45
2023-03-29T12:27:05.084Z,4.95
2023-03-29T12:32:25.930Z,11.05
2023-03-29T12:37:58.923Z,3.38
2023-03-29T12:43:38.062Z,2.78
2023-03-29T12:49:11.861Z,2.67
2023-03-29T12:54:26.810Z,3.90
2023-03-29T12:59:45.259Z,4.25
2023-03-29T13:04:54.841Z,2.47
2023-03-29T13:10:29.096Z,2.85
2023-03-29T13:15:36.313Z,2.50
2023-03-29T13:21:03.424Z,1.95
2023-03-29T13:26:20.023Z,2.35
2023-03-29T13:31:40.701Z,2.00
2023-03-29T13:37:07.142Z,7.72
2023-03-29T13:42:37.898Z,3.33
2023-03-29T13:47:54.973Z,5.40
2023-03-29T13:53:39.887Z,2.63
2023-03-29T13:58:46.895Z,2.40
2023-03-29T14:09:14.847Z,24.73
2023-03-29T14:14:22.131Z,16.00
2023-03-29T14:19:35.456Z,39.92
2023-03-29T14:24:44.453Z,23.88
2023-03-29T14:29:51.794Z,11.57
2023-03-29T14:34:54.447Z,5.05
2023-03-29T14:39:59.402Z,6.00
2023-03-29T14:45:09.617Z,4.88
2023-03-29T14:50:38.426Z,3.88
2023-03-29T14:55:41.131Z,5.63
2023-03-29T15:06:04.403Z,6.65
2023-03-29T15:11:20.719Z,3.35
2023-03-29T15:16:23.453Z,10.27
2023-03-29T15:21:32.207Z,7.88
2023-03-29T15:26:37.875Z,18.30
2023-03-29T15:31:42.337Z,3.60
2023-03-29T15:36:46.766Z,5.00
2023-03-29T15:41:52.219Z,3.10
2023-03-29T15:47:00.345Z,3.65
2023-03-29T15:52:03.405Z,3.00
2023-03-29T15:57:14.041Z,3.28
2023-03-29T16:02:17.730Z,2.42
2023-03-29T16:07:21.166Z,6.97
2023-03-29T16:12:23.559Z,5.68
2023-03-29T16:17:26.857Z,33.97
2023-03-29T16:22:29.747Z,7.78
2023-03-29T16:27:33.226Z,5.88
2023-03-29T16:32:36.125Z,9.07
2023-03-29T16:37:38.724Z,12.00
2023-03-29T16:42:41.767Z,9.93
2023-03-29T16:47:45.202Z,14.43
2023-03-29T16:52:52.887Z,9.85
2023-03-29T16:57:55.312Z,10.93
2023-03-29T17:02:57.746Z,8.70
2023-03-29T17:08:00.396Z,8.57
2023-03-29T17:13:03.034Z,6.60
2023-03-29T17:18:05.406Z,13.98
2023-03-29T17:23:09.413Z,20.67
2023-03-29T17:28:11.972Z,14.13
2023-03-29T17:33:14.300Z,31.85
2023-03-29T17:38:16.835Z,7.93
2023-03-29T17:43:19.558Z,15.20
2023-03-29T17:48:23.949Z,33.85
2023-03-29T17:53:26.422Z,45.97
2023-03-29T17:58:28.715Z,19.77
2023-03-29T18:03:30.998Z,18.23
2023-03-29T18:08:33.833Z,28.80
2023-03-29T18:13:36.263Z,23.33
2023-03-29T18:18:38.942Z,41.92
2023-03-29T18:23:44.427Z,33.58
2023-03-29T18:28:53.318Z,23.27
2023-03-29T18:33:58.155Z,14.98
2023-03-29T18:39:05.999Z,17.17
2023-03-29T18:44:08.360Z,19.63
2023-03-29T18:49:13.661Z,14.75
2023-03-29T18:54:16.322Z,18.45
2023-03-29T18:59:18.930Z,28.23
2023-03-29T19:04:21.393Z,24.33
2023-03-29T19:09:24.043Z,20.17
2023-03-29T19:14:26.546Z,25.20
2023-03-29T19:19:28.888Z,24.58
2023-03-29T19:24:31.500Z,51.58
2023-03-29T19:29:33.913Z,31.83
2023-03-29T19:34:36.574Z,42.22
2023-03-29T19:39:40.265Z,25.27
2023-03-29T19:44:42.664Z,25.13
2023-03-29T19:49:46.792Z,27.15
2023-03-29T19:54:49.235Z,28.00
2023-03-29T19:59:53.643Z,22.70
2023-03-29T20:04:58.173Z,19.15
2023-03-29T20:10:00.660Z,19.90
2023-03-29T20:15:03.490Z,14.98
2023-03-29T20:20:09.720Z,13.50
2023-03-29T20:25:12.225Z,12.30
2023-03-29T20:30:14.831Z,12.07
2023-03-29T20:35:17.240Z,9.70
2023-03-29T20:40:21.098Z,10.65
2023-03-29T20:45:23.598Z,12.13
2023-03-29T20:50:26.813Z,10.60
2023-03-29T20:55:33.907Z,10.65
2023-03-29T21:00:37.973Z,11.82
2023-03-29T21:05:40.408Z,9.60
2023-03-29T21:10:42.725Z,9.55
2023-03-29T21:15:46.932Z,10.88
2023-03-29T21:20:50.056Z,11.55
2023-03-29T21:25:52.272Z,9.43
2023-03-29T21:30:54.898Z,9.93
2023-03-29T21:35:57.576Z,9.23
2023-03-29T21:41:00.908Z,9.13
2023-03-29T21:46:03.193Z,7.40
2023-03-29T21:51:06.061Z,8.63
2023-03-29T21:56:09.041Z,9.57
2023-03-29T22:01:11.700Z,15.77
2023-03-29T22:06:15.059Z,11.13
2023-03-29T22:11:17.626Z,12.25
2023-03-29T22:16:20.095Z,10.45
2023-03-29T22:21:25.115Z,11.00
2023-03-29T22:26:30.886Z,9.43
2023-03-29T22:31:33.449Z,10.75
2023-03-29T22:36:37.056Z,9.65
2023-03-29T22:41:39.684Z,8.90
2023-03-29T22:46:42.839Z,9.93
2023-03-29T22:51:45.030Z,8.40
2023-03-29T22:56:47.254Z,7.68
2023-03-29T23:01:50.316Z,7.78
2023-03-29T23:06:53.412Z,8.77
2023-03-29T23:11:55.993Z,10.90
2023-03-29T23:16:58.543Z,10.63
2023-03-29T23:22:00.852Z,10.55
2023-03-29T23:27:05.163Z,12.02
2023-03-29T23:32:07.855Z,8.70
2023-03-29T23:37:10.981Z,9.13
2023-03-29T23:42:13.304Z,9.57
2023-03-29T23:47:15.956Z,6.90
2023-03-29T23:52:18.413Z,10.82
2023-03-29T23:57:21.598Z,7.55
